Strona główna
METAR-TAF:

METAR-TAF

Lotnisko :

Port lotniczy Mitiga

Trypolis, Libia

Szerokość geograficzna: 32-54N, Długość geograficzna: 13-17E, wysokość: 11 m

METAR: brakujący

czas: 03:08 (01:08 UTC)

Prognoza

Raport powstał 8 godziny i 8 minut temu, godzina 17:00 UTC
Prognoza ważna od 03 godzina 18 UTC do 04 godzina 18 UTC
Wiatr 12 kt od wschód
Widzialność: 8000 m
Mało chmury na wysokości 2500 ft
Rozproszone chmury na wysokości 8000 ft

TAF: HLLM 031700Z 0318/0418 09012KT 8000 FEW025 SCT080

Obserwacja i prognoza pogody dla ponad 4000 lotnisk (raport METAR i TAF).

Dostępne stacje oznaczono żółtymi i czerwonymi punktami na mapie.

Najedź kursorem aby zobaczyć nazwę stacji.

Kliknij aby zobaczyć obserwacje i prognozy pogody.

Aby zmienić mapę: kliknij na zielony przycisk z czarnym krzyżykiem, aby powiększyć; na zielony przycisk z myślnikiem, aby pomniejszyć; na zielone strzałki, aby przejść do map sąsiednich.


METAR-TAF: